Portada
METAR-TAF:

METAR-TAF

Aeroports :

Iakutsk, Rússia

latitud: 62-01N, longitud: 129-43E, altitud: 103 m

Observació

L'informe es va fer fa 39 minuts, a les 08:00 UTC
Vent 12 kt del Oest/Nord-Oest amb ràfegues de 21 kt
Temperatura 11°C
Humitat 22%
Pressió 1011 hPa
Visibilitat 10 km o més
sense núvols per sota de 1500 mi sense presència de cumulonimbus.

METAR: UEEE 200800Z 30006G11MPS CAVOK 11/M10 Q1011 R23L/09//69 NOSIG RMK QFE750

Hora: 17:39 (08:39 UTC)

Pronòstic

L'informe es va fer fa 3 hores i 39 minuts, a les 05:00 UTC
Pronòstic vàlid del 20 a les 06 UTC al 21 a les 12 UTC
Vent 12 kt del Oest/Nord-Oest amb ràfegues de 23 kt
Visibilitat 10 km o més
sense núvols per sota de 1500 mi sense presència de cumulonimbus.

TAF: UEEE 200500Z 2006/2112 30006G12MPS CAVOK

Observacions i pronòstics meteorològics de més de 4000 aeroports (METAR i TAF).

Les estacions disponibles són els punts grocs i vermells al mapa.

Posi el ratolí al punt desitjat per veure el nom de l'estació.

Feu clic per veure les observacions i els pronòstics meteorològics.

Per canviar el mapa: feu clic els botons verds amb una creu de color negre per apropar; al botó verd amb un guió per allunyar la imatge; o en les fletxes verdes per a mapes adjacents.


METAR-TAF: